Terminal Aerodrome Forecast
Issued by NWS Sterling, VA

Current Version | Previous Version | Text Only | Print | Product List | Glossary Off
Versions: 1 2 3 4 5 6 7 8 9 10 11 12 13 14 15 16 17 18 19 20 21 22 23

000
FTUS41 KLWX 191100
TAFDCA
TAF
KDCA 191130Z 1912/2012 33014G21KT P6SM BKN045 BKN090
     FM191500 32016G27KT P6SM BKN040
     FM192200 31009KT P6SM FEW250
     FM200000 32005KT P6SM FEW250=

USA.gov is the U.S. government's official web portal to all federal, state and local government web resources and services.